Time;durP1;ratioP1;P1;durP2;ratioP2;P2;SDS_P1;SDS_P2;PMS_P1;PMS_P2;Temp;Humidity;BMP_temperature;BMP_pressure;BME280_temperature;BME280_humidity;BME280_pressure;Samples;Min_cycle;Max_cycle;Signal;HPM_P1;HPM_P2
2022/01/11 00:01:16;;;;;;;119.63;63.15;;;1.70;99.90;;;;;;5054522;28;20098;-76
2022/01/11 00:03:44;;;;;;;118.78;62.28;;;1.70;99.90;;;;;;5057775;28;20107;-77
2022/01/11 00:06:30;;;;;;;114.30;62.10;;;1.70;99.90;;;;;;5065091;28;20049;-77
2022/01/11 00:09:07;;;;;;;112.00;62.20;;;1.80;99.90;;;;;;5063559;28;20064;-76
2022/01/11 00:11:35;;;;;;;109.95;59.92;;;1.70;99.90;;;;;;5059927;28;20037;-76
2022/01/11 00:14:03;;;;;;;117.13;61.35;;;1.70;99.90;;;;;;5053990;28;20056;-77
2022/01/11 00:16:30;;;;;;;115.68;61.70;;;1.80;99.90;;;;;;5053267;28;20049;-77
2022/01/11 00:19:02;;;;;;;119.10;61.90;;;1.80;99.90;;;;;;5054966;28;20063;-76
2022/01/11 00:21:29;;;;;;;112.20;60.28;;;1.80;99.90;;;;;;5058708;28;20120;-77
2022/01/11 00:26:46;;;;;;;112.38;61.17;;;1.70;99.90;;;;;;5059890;28;20075;-77
2022/01/11 00:29:13;;;;;;;118.80;62.65;;;1.70;99.90;;;;;;5053686;28;20107;-77
2022/01/11 00:31:44;;;;;;;113.18;59.67;;;1.80;99.90;;;;;;5053619;28;20067;-77
2022/01/11 00:34:13;;;;;;;114.03;60.20;;;1.80;99.90;;;;;;5053254;28;20122;-76
2022/01/11 00:36:42;;;;;;;115.00;58.83;;;1.80;99.90;;;;;;5053409;28;20048;-77
2022/01/11 00:39:12;;;;;;;107.25;57.70;;;1.70;99.90;;;;;;5052611;28;20045;-76
2022/01/11 00:41:40;;;;;;;114.60;58.33;;;1.70;99.90;;;;;;5052591;28;20099;-76
2022/01/11 00:44:08;;;;;;;109.05;58.95;;;1.70;99.90;;;;;;5051553;28;20479;-77
2022/01/11 00:46:38;;;;;;;109.32;60.53;;;1.80;99.90;;;;;;5052501;28;20045;-77
2022/01/11 00:49:05;;;;;;;109.55;57.13;;;1.80;99.90;;;;;;5052669;28;20052;-76
2022/01/11 00:51:33;;;;;;;109.50;60.45;;;1.80;99.90;;;;;;5056695;28;20046;-76
2022/01/11 00:54:00;;;;;;;112.25;59.20;;;1.80;99.90;;;;;;5056162;28;20132;-76
2022/01/11 00:56:29;;;;;;;108.13;57.03;;;1.90;99.90;;;;;;5056632;28;20140;-77
2022/01/11 00:58:57;;;;;;;104.70;57.75;;;1.80;99.90;;;;;;5056176;28;20053;-77
2022/01/11 01:01:27;;;;;;;110.60;58.25;;;1.80;99.90;;;;;;5058001;28;20044;-76
2022/01/11 01:03:55;;;;;;;108.75;57.75;;;1.80;99.90;;;;;;5056330;28;20457;-76
2022/01/11 01:06:22;;;;;;;104.88;56.97;;;1.80;99.90;;;;;;5055718;28;20049;-78
2022/01/11 01:08:50;;;;;;;111.05;59.45;;;1.80;99.90;;;;;;5056492;28;20561;-76
2022/01/11 01:11:18;;;;;;;106.10;57.70;;;1.80;99.90;;;;;;5056747;28;20137;-76
2022/01/11 01:13:51;;;;;;;113.30;59.15;;;1.80;99.90;;;;;;5055895;28;20052;-77
2022/01/11 01:16:20;;;;;;;106.78;58.00;;;1.80;99.90;;;;;;5056199;28;20064;-76
2022/01/11 01:18:58;;;;;;;110.60;60.78;;;1.90;99.90;;;;;;5055718;28;20049;-76
2022/01/11 01:21:25;;;;;;;104.55;58.80;;;1.90;99.90;;;;;;5056001;28;20063;-76
2022/01/11 01:23:53;;;;;;;112.45;59.10;;;1.90;99.90;;;;;;5056948;28;20041;-75
2022/01/11 01:26:20;;;;;;;112.45;58.67;;;1.90;99.90;;;;;;5055706;28;20083;-77
2022/01/11 01:28:49;;;;;;;112.43;60.67;;;1.90;99.90;;;;;;5060400;28;20048;-74
2022/01/11 01:31:18;;;;;;;108.00;59.17;;;1.90;99.90;;;;;;5063596;28;20052;-74
2022/01/11 01:33:46;;;;;;;108.80;58.05;;;1.90;99.90;;;;;;5064199;28;20124;-77
2022/01/11 01:36:14;;;;;;;117.15;59.45;;;1.90;99.90;;;;;;5066347;28;20048;-76
2022/01/11 01:38:41;;;;;;;110.15;58.90;;;1.90;99.90;;;;;;5048520;28;20064;-75
2022/01/11 01:41:14;;;;;;;116.07;60.05;;;1.90;99.90;;;;;;5037459;28;20111;-74
2022/01/11 01:43:43;;;;;;;116.50;62.72;;;1.90;99.90;;;;;;5055167;28;20045;-76
2022/01/11 01:46:12;;;;;;;112.50;60.03;;;2.00;99.90;;;;;;5063487;28;20049;-77
2022/01/11 01:48:40;;;;;;;109.68;60.53;;;2.00;99.90;;;;;;5070486;28;20049;-78
2022/01/11 01:51:09;;;;;;;108.90;58.40;;;2.10;99.90;;;;;;5071154;28;20099;-76
2022/01/11 01:53:46;;;;;;;111.05;58.20;;;2.10;99.90;;;;;;5066310;28;20112;-76
2022/01/11 01:56:14;;;;;;;109.63;58.90;;;2.10;99.90;;;;;;5066242;28;20049;-75
2022/01/11 01:58:42;;;;;;;115.22;59.25;;;2.10;99.90;;;;;;5061564;28;20110;-76
2022/01/11 02:01:13;;;;;;;114.53;59.05;;;2.10;99.90;;;;;;5054677;28;20585;-77
2022/01/11 02:03:43;;;;;;;111.70;59.83;;;2.10;99.90;;;;;;5060729;28;20091;-76
2022/01/11 02:06:13;;;;;;;112.07;58.85;;;2.00;99.90;;;;;;5055144;28;20045;-77
2022/01/11 02:08:42;;;;;;;112.32;59.50;;;2.00;99.90;;;;;;5057735;28;20049;-77
2022/01/11 02:11:10;;;;;;;108.38;58.55;;;2.00;99.90;;;;;;5062776;28;20061;-76
2022/01/11 02:13:39;;;;;;;107.85;58.50;;;2.00;99.90;;;;;;5066379;28;20045;-76
2022/01/11 02:16:08;;;;;;;108.68;57.72;;;2.00;99.90;;;;;;5065054;28;20516;-76
2022/01/11 02:18:38;;;;;;;111.20;58.00;;;1.90;99.90;;;;;;5061976;28;20045;-77
2022/01/11 02:21:12;;;;;;;113.20;60.45;;;1.90;99.90;;;;;;5061885;28;20580;-77
2022/01/11 02:23:41;;;;;;;113.10;58.53;;;1.90;99.90;;;;;;5055828;28;20045;-76
2022/01/11 02:26:09;;;;;;;107.15;56.75;;;1.90;99.90;;;;;;5053331;28;20099;-76
2022/01/11 02:28:40;;;;;;;113.03;58.58;;;1.90;99.90;;;;;;5053630;28;20045;-76
2022/01/11 02:31:12;;;;;;;107.65;57.83;;;1.90;99.90;;;;;;5054061;28;20223;-76
2022/01/11 02:33:44;;;;;;;106.82;58.53;;;1.90;99.90;;;;;;5053583;28;20496;-75
2022/01/11 02:36:35;;;;;;;113.40;59.95;;;1.90;99.90;;;;;;5069067;28;20049;-76
2022/01/11 02:39:32;;;;;;;105.95;58.85;;;1.90;99.90;;;;;;5054028;28;20113;-77
2022/01/11 02:42:07;;;;;;;103.20;56.40;;;1.90;99.90;;;;;;5073405;28;20067;-76
2022/01/11 02:44:43;;;;;;;99.50;54.70;;;1.90;99.90;;;;;;5068484;28;20099;-77
2022/01/11 02:47:17;;;;;;;103.53;54.63;;;1.90;99.90;;;;;;5054938;28;20439;-76
2022/01/11 02:49:45;;;;;;;109.25;59.05;;;1.90;99.90;;;;;;5053960;28;20049;-76
2022/01/11 02:52:22;;;;;;;109.55;58.95;;;1.90;99.90;;;;;;5057427;28;20127;-79
2022/01/11 02:54:56;;;;;;;135.95;68.75;;;1.80;99.90;;;;;;5051508;28;20055;-79
2022/01/11 02:57:25;;;;;;;104.80;57.97;;;1.80;99.90;;;;;;5054879;28;20094;-79
2022/01/11 03:00:17;;;;;;;108.85;60.03;;;1.90;99.90;;;;;;5047562;28;20124;-79
2022/01/11 03:02:46;;;;;;;106.53;57.55;;;1.80;99.90;;;;;;5053381;28;20049;-79
2022/01/11 03:05:17;;;;;;;110.32;59.35;;;1.90;99.90;;;;;;5053661;28;20454;-79
2022/01/11 03:07:46;;;;;;;111.85;61.38;;;1.90;99.90;;;;;;5037604;28;20051;-79
2022/01/11 03:10:24;;;;;;;110.47;59.00;;;1.90;99.90;;;;;;5051944;28;20552;-79
2022/01/11 03:12:53;;;;;;;108.93;60.55;;;1.90;99.90;;;;;;5047365;28;20098;-79
2022/01/11 03:15:21;;;;;;;104.18;57.13;;;2.00;99.90;;;;;;5058490;28;20073;-79
2022/01/11 03:17:53;;;;;;;104.30;52.92;;;1.90;99.90;;;;;;5045477;28;20077;-78
2022/01/11 03:20:21;;;;;;;98.20;53.22;;;1.90;99.90;;;;;;5050156;28;20071;-78
2022/01/11 03:22:52;;;;;;;99.35;55.38;;;1.90;99.90;;;;;;5055912;28;20049;-78
2022/01/11 03:25:20;;;;;;;96.20;51.50;;;1.90;99.90;;;;;;5044563;28;20135;-78
2022/01/11 03:27:49;;;;;;;86.40;47.53;;;1.90;99.90;;;;;;5050596;28;20095;-78
2022/01/11 03:30:20;;;;;;;81.05;45.05;;;1.90;99.90;;;;;;5043661;28;20140;-78
2022/01/11 03:32:50;;;;;;;83.40;46.47;;;1.90;99.90;;;;;;5054310;28;20457;-79
2022/01/11 03:35:24;;;;;;;81.15;43.88;;;1.90;99.90;;;;;;5053558;28;20055;-78
2022/01/11 03:37:54;;;;;;;76.43;42.72;;;2.00;99.90;;;;;;5054947;28;20044;-79
2022/01/11 03:40:24;;;;;;;61.50;34.25;;;1.90;99.90;;;;;;5044899;28;20055;-78
2022/01/11 03:42:54;;;;;;;55.08;31.27;;;1.90;99.90;;;;;;5045808;28;20033;-78
2022/01/11 03:45:24;;;;;;;54.47;31.55;;;1.90;99.90;;;;;;5045248;28;20041;-78
2022/01/11 03:47:58;;;;;;;47.22;28.25;;;1.90;99.90;;;;;;5053081;28;20102;-79
2022/01/11 03:50:27;;;;;;;45.90;27.23;;;1.80;99.90;;;;;;5052977;28;20045;-80
2022/01/11 03:53:05;;;;;;;50.70;28.83;;;1.80;99.90;;;;;;5054260;28;20032;-79
2022/01/11 03:55:45;;;;;;;50.20;30.23;;;1.80;99.90;;;;;;5052917;28;20045;-79
2022/01/11 03:58:16;;;;;;;52.10;30.80;;;1.80;99.90;;;;;;5063816;28;20049;-81
2022/01/11 04:00:45;;;;;;;60.22;33.60;;;1.80;99.90;;;;;;5063096;28;20053;-80
2022/01/11 04:03:13;;;;;;;62.17;35.60;;;1.80;99.90;;;;;;5071324;28;20083;-80
2022/01/11 04:05:43;;;;;;;66.00;37.20;;;1.90;99.90;;;;;;5052304;28;20053;-79
2022/01/11 04:08:13;;;;;;;70.13;38.67;;;1.90;99.90;;;;;;5052611;28;20053;-79
2022/01/11 04:10:40;;;;;;;72.43;40.08;;;1.90;99.90;;;;;;5052398;28;20139;-79
2022/01/11 04:13:09;;;;;;;77.50;42.70;;;1.90;99.90;;;;;;5052065;28;20076;-79
2022/01/11 04:15:37;;;;;;;82.28;44.33;;;1.90;99.90;;;;;;5052328;28;20053;-79
2022/01/11 04:18:05;;;;;;;80.90;44.20;;;1.80;99.90;;;;;;5052218;28;20503;-80
2022/01/11 04:20:33;;;;;;;76.25;43.40;;;1.90;99.90;;;;;;5052034;28;20049;-80
2022/01/11 04:23:01;;;;;;;63.22;35.65;;;1.90;99.90;;;;;;5053487;28;20065;-79
2022/01/11 04:25:31;;;;;;;63.33;36.60;;;1.90;99.90;;;;;;5056024;28;20060;-79
2022/01/11 04:28:01;;;;;;;63.58;36.13;;;1.90;99.90;;;;;;5056920;28;20461;-80
2022/01/11 04:30:29;;;;;;;70.25;37.67;;;1.90;99.90;;;;;;5051881;28;20408;-79
2022/01/11 04:32:57;;;;;;;64.70;36.33;;;1.90;99.90;;;;;;5061309;28;20048;-79
2022/01/11 04:35:24;;;;;;;66.53;36.10;;;1.90;99.90;;;;;;5049455;28;20408;-79
2022/01/11 04:37:53;;;;;;;69.25;38.42;;;1.90;99.90;;;;;;5035794;28;20049;-79
2022/01/11 04:40:20;;;;;;;68.55;37.97;;;1.90;99.90;;;;;;5036243;28;20049;-79
2022/01/11 04:42:50;;;;;;;68.18;40.15;;;1.80;99.90;;;;;;5047346;28;20037;-79
2022/01/11 04:45:18;;;;;;;69.72;40.72;;;1.90;99.90;;;;;;5055672;28;20129;-79
2022/01/11 04:47:52;;;;;;;71.35;39.85;;;1.80;99.90;;;;;;5061260;28;20061;-81
2022/01/11 04:50:20;;;;;;;72.53;41.83;;;1.90;99.90;;;;;;5056685;28;20082;-79
2022/01/11 04:52:47;;;;;;;80.85;45.33;;;1.90;99.90;;;;;;5055853;28;20099;-79
2022/01/11 04:55:17;;;;;;;78.40;42.28;;;1.90;99.90;;;;;;5055831;28;20068;-79
2022/01/11 04:57:46;;;;;;;84.95;48.10;;;1.90;99.90;;;;;;5055417;28;20052;-79
2022/01/11 05:00:18;;;;;;;81.05;47.00;;;2.00;99.90;;;;;;5055828;28;20056;-79
2022/01/11 05:02:46;;;;;;;82.50;47.42;;;2.00;99.90;;;;;;5055450;28;20045;-79
2022/01/11 05:05:15;;;;;;;78.10;46.72;;;2.00;99.90;;;;;;5068957;28;20488;-80
2022/01/11 05:07:45;;;;;;;83.88;46.83;;;2.00;99.90;;;;;;5065666;28;20041;-80
2022/01/11 05:10:13;;;;;;;79.95;46.65;;;1.90;99.90;;;;;;5062789;28;20037;-80
2022/01/11 05:12:41;;;;;;;82.15;47.13;;;1.90;99.90;;;;;;5056710;28;20059;-79
2022/01/11 05:15:11;;;;;;;81.72;46.88;;;1.90;99.90;;;;;;5076795;28;20045;-80
2022/01/11 05:17:41;;;;;;;80.50;46.75;;;1.90;99.90;;;;;;5058202;28;20050;-79
2022/01/11 05:20:11;;;;;;;76.40;45.25;;;2.00;99.90;;;;;;5048695;28;20079;-79
2022/01/11 05:22:39;;;;;;;79.15;45.60;;;1.90;99.90;;;;;;5058656;28;20037;-79
2022/01/11 05:25:11;;;;;;;77.75;44.58;;;1.90;99.90;;;;;;5037431;28;20041;-79
2022/01/11 05:27:41;;;;;;;76.88;41.80;;;1.90;99.90;;;;;;5041267;28;20098;-79
2022/01/11 05:30:10;;;;;;;72.57;42.92;;;1.80;99.90;;;;;;5057980;28;20048;-79
2022/01/11 05:32:38;;;;;;;70.28;39.42;;;1.90;99.90;;;;;;5056462;28;20133;-80
2022/01/11 05:35:09;;;;;;;75.03;41.88;;;1.90;99.90;;;;;;5047418;28;20053;-81
2022/01/11 05:37:37;;;;;;;70.95;42.05;;;1.90;99.90;;;;;;5051354;28;20083;-81
2022/01/11 05:40:05;;;;;;;67.93;40.67;;;1.90;99.90;;;;;;5059468;28;20045;-77
2022/01/11 05:42:33;;;;;;;70.15;40.90;;;1.90;99.90;;;;;;5068660;28;20033;-78
2022/01/11 05:45:01;;;;;;;76.82;43.47;;;2.00;99.90;;;;;;5078803;28;20045;-80
2022/01/11 05:47:30;;;;;;;79.03;45.92;;;2.00;99.90;;;;;;5062725;28;20101;-77
2022/01/11 05:50:00;;;;;;;79.32;45.67;;;2.00;99.90;;;;;;5070675;28;20041;-79
2022/01/11 05:52:33;;;;;;;90.82;49.10;;;2.00;99.90;;;;;;5082282;28;20044;-78
2022/01/11 05:55:01;;;;;;;87.20;48.50;;;2.00;99.90;;;;;;5088801;28;20063;-80
2022/01/11 05:57:29;;;;;;;84.85;50.00;;;2.00;99.90;;;;;;5074795;28;20037;-78
2022/01/11 05:59:57;;;;;;;86.47;47.85;;;2.00;99.90;;;;;;5068360;28;20033;-80
2022/01/11 06:02:25;;;;;;;86.55;49.10;;;2.00;99.90;;;;;;5074902;22;20484;-77
2022/01/11 06:04:53;;;;;;;89.20;49.88;;;2.10;99.90;;;;;;5098832;28;20397;-78
2022/01/11 06:07:21;;;;;;;83.85;49.92;;;2.10;99.90;;;;;;5087174;28;20048;-78
2022/01/11 06:09:50;;;;;;;97.57;54.55;;;2.10;99.90;;;;;;5087337;28;20063;-79
2022/01/11 06:12:18;;;;;;;105.15;57.75;;;2.10;99.90;;;;;;5114832;28;20039;-78
2022/01/11 06:14:46;;;;;;;101.10;56.75;;;2.00;99.90;;;;;;5077562;28;20510;-78
2022/01/11 06:17:14;;;;;;;89.68;50.83;;;2.00;99.90;;;;;;5096397;28;20044;-77
2022/01/11 06:19:41;;;;;;;91.55;50.45;;;2.10;99.90;;;;;;5078334;28;20431;-79
2022/01/11 06:22:12;;;;;;;81.32;47.13;;;2.10;99.90;;;;;;5078531;28;20131;-77
2022/01/11 06:24:39;;;;;;;79.20;46.22;;;2.10;99.90;;;;;;5077797;28;20044;-77
2022/01/11 06:27:09;;;;;;;78.53;46.60;;;2.20;99.90;;;;;;5078246;28;20126;-77
2022/01/11 06:29:39;;;;;;;86.47;50.42;;;2.20;99.90;;;;;;5062536;28;20051;-78
2022/01/11 06:32:07;;;;;;;86.20;51.10;;;2.20;99.90;;;;;;5078488;28;20102;-77
2022/01/11 06:34:35;;;;;;;80.20;48.33;;;2.10;99.90;;;;;;5078029;28;20699;-77
2022/01/11 06:37:03;;;;;;;76.70;45.05;;;2.20;99.90;;;;;;5078477;28;20481;-78
2022/01/11 06:39:36;;;;;;;72.68;44.75;;;2.10;99.90;;;;;;5078873;28;20190;-78
2022/01/11 06:42:09;;;;;;;70.00;42.45;;;2.10;99.90;;;;;;5094988;28;20402;-78
2022/01/11 06:44:38;;;;;;;65.25;38.45;;;2.10;99.90;;;;;;5077288;28;20081;-77
2022/01/11 06:47:07;;;;;;;58.10;31.10;;;2.10;99.90;;;;;;5097128;28;20048;-78
2022/01/11 06:49:42;;;;;;;49.67;30.23;;;1.90;99.90;;;;;;5077489;28;20138;-77
2022/01/11 06:52:11;;;;;;;53.58;30.85;;;1.80;99.90;;;;;;5076672;28;20036;-79
2022/01/11 06:54:43;;;;;;;50.58;28.05;;;1.80;99.90;;;;;;5077995;28;20039;-78
2022/01/11 06:57:12;;;;;;;50.90;28.42;;;1.80;99.90;;;;;;5077404;28;20092;-76
2022/01/11 06:59:40;;;;;;;60.08;29.92;;;1.70;99.90;;;;;;5077314;28;20040;-76
2022/01/11 07:02:11;;;;;;;61.15;30.02;;;1.70;99.90;;;;;;5073174;28;20044;-78
2022/01/11 07:04:53;;;;;;;61.08;30.48;;;1.70;99.90;;;;;;5048927;28;20095;-77
2022/01/11 07:07:21;;;;;;;42.22;25.92;;;1.80;99.90;;;;;;5047693;28;20053;-77
2022/01/11 07:09:48;;;;;;;55.22;29.23;;;1.90;99.90;;;;;;5044812;28;20052;-78
2022/01/11 07:12:19;;;;;;;45.97;26.83;;;2.00;99.90;;;;;;5057038;28;20041;-79
2022/01/11 07:14:47;;;;;;;54.30;28.85;;;2.10;99.90;;;;;;5055668;28;20044;-77
2022/01/11 07:17:15;;;;;;;46.90;27.70;;;2.20;99.90;;;;;;5054138;28;20044;-78
2022/01/11 07:19:43;;;;;;;44.72;26.08;;;2.20;99.90;;;;;;5053715;28;20440;-77
2022/01/11 07:22:14;;;;;;;49.95;27.88;;;2.20;99.90;;;;;;5051301;28;20044;-78
2022/01/11 07:24:44;;;;;;;49.95;30.25;;;2.20;99.90;;;;;;5054449;28;20463;-78
2022/01/11 07:27:12;;;;;;;52.10;28.10;;;2.20;99.90;;;;;;5059272;28;20060;-80
2022/01/11 07:29:41;;;;;;;43.78;26.83;;;2.20;99.90;;;;;;5068716;28;20045;-79
2022/01/11 07:32:09;;;;;;;44.13;27.40;;;2.20;99.90;;;;;;5081966;28;20076;-77
2022/01/11 07:34:37;;;;;;;44.97;27.63;;;2.30;99.90;;;;;;5071951;28;20112;-77
2022/01/11 07:37:05;;;;;;;46.95;27.95;;;2.40;99.90;;;;;;5072847;28;20052;-77
2022/01/11 07:39:35;;;;;;;49.53;28.17;;;2.40;99.90;;;;;;5065962;28;20041;-78
2022/01/11 07:42:04;;;;;;;45.75;25.80;;;2.60;99.90;;;;;;5060030;28;20492;-78
2022/01/11 07:44:51;;;;;;;41.33;26.50;;;2.70;99.90;;;;;;5053356;28;20052;-77
2022/01/11 07:47:19;;;;;;;42.72;25.48;;;2.70;99.90;;;;;;5054274;28;20045;-78
2022/01/11 07:49:48;;;;;;;45.00;25.60;;;2.70;99.90;;;;;;5053702;28;20045;-79
2022/01/11 07:52:16;;;;;;;47.67;28.17;;;2.70;99.90;;;;;;5055087;28;20045;-79
2022/01/11 07:54:45;;;;;;;43.83;26.90;;;2.80;99.90;;;;;;5052125;28;20091;-79
2022/01/11 07:57:16;;;;;;;46.03;27.20;;;2.80;99.90;;;;;;5053945;28;20056;-79
2022/01/11 07:59:44;;;;;;;46.15;27.30;;;2.90;99.90;;;;;;5053205;28;20044;-79
2022/01/11 08:02:15;;;;;;;55.00;30.00;;;3.00;99.90;;;;;;5061379;28;20041;-79
2022/01/11 08:04:43;;;;;;;53.28;31.85;;;3.00;99.90;;;;;;5102377;28;20044;-79
2022/01/11 08:07:11;;;;;;;53.30;31.45;;;3.10;99.90;;;;;;5087218;28;20043;-78
2022/01/11 08:09:56;;;;;;;;;;;3.00;99.90;;;;;;5075865;28;20045;-78
2022/01/11 08:12:24;;;;;;;63.90;35.83;;;3.10;99.90;;;;;;5056260;28;19927;-78
2022/01/11 08:14:51;;;;;;;61.63;36.00;;;3.10;99.90;;;;;;5072043;28;20034;-79
2022/01/11 08:17:21;;;;;;;62.03;37.08;;;3.20;99.90;;;;;;5077851;28;20048;-77
2022/01/11 08:19:49;;;;;;;68.57;39.67;;;3.20;99.90;;;;;;5095662;28;20055;-78
2022/01/11 08:22:19;;;;;;;70.47;41.15;;;3.20;99.90;;;;;;5096890;28;20093;-79
2022/01/11 08:24:55;;;;;;;76.45;45.15;;;3.20;99.90;;;;;;5079425;28;20052;-80
2022/01/11 08:27:23;;;;;;;76.70;45.58;;;3.20;99.90;;;;;;5081159;28;20124;-79
2022/01/11 08:29:52;;;;;;;78.18;44.67;;;3.20;99.90;;;;;;5082201;28;20052;-79
2022/01/11 08:32:22;;;;;;;76.13;43.58;;;3.20;99.90;;;;;;5083071;28;20051;-79
2022/01/11 08:34:49;;;;;;;74.70;43.00;;;3.20;99.90;;;;;;5097621;28;20040;-79
2022/01/11 08:37:18;;;;;;;65.95;40.97;;;3.20;99.90;;;;;;5096510;28;20060;-79
2022/01/11 08:39:47;;;;;;;70.93;41.92;;;3.30;99.90;;;;;;5100840;28;20490;-77
2022/01/11 08:42:15;;;;;;;74.28;42.95;;;3.30;99.90;;;;;;5077391;28;20048;-80
2022/01/11 08:44:45;;;;;;;80.25;44.15;;;3.20;99.90;;;;;;5075766;28;20075;-78
2022/01/11 08:47:14;;;;;;;65.25;39.70;;;3.20;99.90;;;;;;5076688;28;20402;-77
2022/01/11 08:49:47;;;;;;;55.65;34.75;;;3.10;99.90;;;;;;5075847;28;20058;-77
2022/01/11 08:52:15;;;;;;;57.97;34.83;;;3.10;99.90;;;;;;5076456;28;20052;-78
2022/01/11 08:54:44;;;;;;;62.47;38.83;;;3.20;99.90;;;;;;5076268;28;20048;-77
2022/01/11 08:57:11;;;;;;;72.15;41.15;;;3.20;99.90;;;;;;5076149;28;20059;-77
2022/01/11 08:59:39;;;;;;;72.63;39.72;;;3.20;99.90;;;;;;5076620;28;20074;-77
2022/01/11 09:02:10;;;;;;;76.70;44.25;;;3.10;99.90;;;;;;5076249;28;20048;-77
2022/01/11 09:04:40;;;;;;;69.10;39.28;;;3.00;99.90;;;;;;5072607;28;20047;-78
2022/01/11 09:07:19;;;;;;;70.97;39.67;;;3.00;99.90;;;;;;5097226;28;20060;-77
2022/01/11 09:09:47;;;;;;;69.45;39.53;;;3.00;99.90;;;;;;5075246;28;20040;-78
2022/01/11 09:12:16;;;;;;;60.17;33.80;;;3.10;99.90;;;;;;5083378;28;20108;-78
2022/01/11 09:14:48;;;;;;;53.53;33.05;;;3.10;99.90;;;;;;5082533;28;20044;-79
2022/01/11 09:17:16;;;;;;;60.63;36.03;;;3.20;99.90;;;;;;5085223;28;20204;-77
2022/01/11 09:19:45;;;;;;;58.47;35.40;;;3.30;99.90;;;;;;5084856;28;20040;-77
2022/01/11 09:22:15;;;;;;;53.22;34.25;;;3.50;99.90;;;;;;5083644;28;20075;-77
2022/01/11 09:24:45;;;;;;;57.35;33.47;;;3.40;99.90;;;;;;5085210;28;20040;-77
2022/01/11 09:27:17;;;;;;;45.92;28.98;;;3.50;99.90;;;;;;5099249;28;20523;-78
2022/01/11 09:29:47;;;;;;;53.65;32.45;;;3.30;99.90;;;;;;5085707;28;20097;-78
2022/01/11 09:32:17;;;;;;;62.97;36.25;;;3.30;99.90;;;;;;5099710;28;20046;-77
2022/01/11 09:34:45;;;;;;;63.97;36.20;;;3.30;99.90;;;;;;5100353;28;20040;-77
2022/01/11 09:37:23;;;;;;;64.22;35.92;;;3.20;99.90;;;;;;5083455;28;20407;-77
2022/01/11 09:39:52;;;;;;;67.53;37.45;;;3.10;99.90;;;;;;5083875;28;20048;-77
2022/01/11 09:42:24;;;;;;;61.47;35.55;;;3.20;99.90;;;;;;5082026;28;20076;-78
2022/01/11 09:44:53;;;;;;;41.65;25.77;;;3.30;99.90;;;;;;5100062;28;20144;-78
2022/01/11 09:47:21;;;;;;;38.15;23.50;;;3.20;99.90;;;;;;5081425;28;20509;-77
2022/01/11 09:49:51;;;;;;;39.05;23.73;;;3.30;99.90;;;;;;5078917;28;20040;-76
2022/01/11 09:52:19;;;;;;;42.22;25.60;;;3.30;99.90;;;;;;5085182;28;20052;-77
2022/01/11 09:54:49;;;;;;;46.40;27.17;;;3.20;99.90;;;;;;5085612;28;20062;-76
2022/01/11 09:57:21;;;;;;;38.63;23.95;;;3.00;99.90;;;;;;5100667;28;20048;-79
2022/01/11 10:00:01;;;;;;;42.00;24.85;;;2.90;99.90;;;;;;5071508;28;20094;-79
2022/01/11 10:02:44;;;;;;;33.53;19.48;;;3.00;99.90;;;;;;5091281;28;20044;-77
2022/01/11 10:05:26;;;;;;;32.95;19.02;;;3.00;99.90;;;;;;5078995;28;20040;-78
2022/01/11 10:07:56;;;;;;;31.52;17.73;;;3.00;99.90;;;;;;5074345;28;20068;-78
2022/01/11 10:10:26;;;;;;;26.20;16.05;;;3.10;99.90;;;;;;5077932;28;20063;-78
2022/01/11 10:13:04;;;;;;;26.05;16.35;;;3.10;99.90;;;;;;5071759;28;20036;-76
2022/01/11 10:15:37;;;;;;;27.38;16.77;;;3.10;99.90;;;;;;5071000;28;20050;-78
2022/01/11 10:18:32;;;;;;;27.20;16.10;;;3.10;99.90;;;;;;5067426;28;20063;-81
2022/01/11 10:21:00;;;;;;;27.08;16.80;;;3.20;99.90;;;;;;5082127;28;20043;-79
2022/01/11 10:23:34;;;;;;;31.52;19.95;;;3.30;99.90;;;;;;5082812;28;20046;-79
2022/01/11 10:26:02;;;;;;;26.30;16.95;;;3.30;99.90;;;;;;5082882;28;20222;-81
2022/01/11 10:28:37;;;;;;;27.33;16.48;;;3.20;99.90;;;;;;5086494;28;20074;-79
2022/01/11 10:31:08;;;;;;;30.95;16.50;;;3.20;99.90;;;;;;5076490;28;20082;-80
2022/01/11 10:34:01;;;;;;;31.88;16.85;;;3.20;99.90;;;;;;5077730;28;20064;-77
2022/01/11 10:36:44;;;;;;;29.98;17.00;;;3.10;99.90;;;;;;5093124;28;20067;-81
2022/01/11 10:39:29;;;;;;;30.92;17.33;;;3.00;99.90;;;;;;5092001;28;20173;-79
2022/01/11 10:41:58;;;;;;;28.63;16.05;;;3.00;99.90;;;;;;5095904;28;20052;-80
2022/01/11 10:44:51;;;;;;;26.38;16.50;;;3.00;99.90;;;;;;5080013;28;20040;-79
2022/01/11 10:47:24;;;;;;;24.45;16.13;;;2.90;99.90;;;;;;5081036;28;20059;-79
2022/01/11 10:49:57;;;;;;;26.58;16.67;;;2.80;99.90;;;;;;5081877;28;20044;-79
2022/01/11 10:52:27;;;;;;;27.67;16.98;;;2.80;99.90;;;;;;5080409;28;20064;-79
2022/01/11 10:55:06;;;;;;;27.75;17.08;;;2.80;99.90;;;;;;5080913;28;20048;-79
2022/01/11 10:57:37;;;;;;;26.02;16.85;;;2.80;99.90;;;;;;5082012;28;20506;-79
2022/01/11 11:00:17;;;;;;;33.70;19.08;;;2.70;99.90;;;;;;5079907;28;20063;-78
2022/01/11 11:02:49;;;;;;;32.78;18.45;;;2.80;99.90;;;;;;5098112;28;20503;-79
2022/01/11 11:05:24;;;;;;;33.97;19.92;;;2.80;99.90;;;;;;5083151;28;20048;-80
2022/01/11 11:08:02;;;;;;;39.55;23.20;;;2.70;99.90;;;;;;5083142;28;20131;-80
2022/01/11 11:10:47;;;;;;;42.53;23.42;;;2.80;99.90;;;;;;5083611;28;20461;-79
2022/01/11 11:13:22;;;;;;;37.38;23.60;;;2.70;99.90;;;;;;5086797;28;20048;-79
2022/01/11 11:15:53;;;;;;;38.60;22.90;;;2.60;99.90;;;;;;5084946;28;20071;-78
2022/01/11 11:18:25;;;;;;;44.22;26.38;;;2.50;99.90;;;;;;5080966;28;20050;-79
2022/01/11 11:20:53;;;;;;;42.50;25.45;;;2.70;99.90;;;;;;5085877;28;20044;-78
2022/01/11 11:23:20;;;;;;;46.75;26.40;;;2.60;99.90;;;;;;5079367;28;20135;-79
2022/01/11 11:25:48;;;;;;;49.40;28.95;;;2.60;99.90;;;;;;5077738;28;20040;-79
2022/01/11 11:28:17;;;;;;;61.97;34.17;;;2.60;99.90;;;;;;5080420;28;20050;-80
2022/01/11 11:30:50;;;;;;;57.53;33.83;;;2.60;99.90;;;;;;5098567;28;20040;-80
2022/01/11 11:33:21;;;;;;;54.60;32.47;;;2.60;99.90;;;;;;5096581;28;20102;-78
2022/01/11 11:35:52;;;;;;;51.40;29.58;;;2.70;99.90;;;;;;5096721;28;20040;-79
2022/01/11 11:38:22;;;;;;;43.08;24.05;;;2.70;99.90;;;;;;5097529;28;20040;-80
2022/01/11 11:40:53;;;;;;;35.53;20.88;;;2.80;99.90;;;;;;5098258;28;20100;-78
2022/01/11 11:43:22;;;;;;;35.35;21.23;;;2.80;99.90;;;;;;5077441;28;20068;-79
2022/01/11 11:45:51;;;;;;;36.15;20.25;;;2.90;99.90;;;;;;5077182;28;20052;-78
2022/01/11 11:48:24;;;;;;;42.08;24.75;;;3.10;99.90;;;;;;5076768;28;20040;-79
2022/01/11 11:50:55;;;;;;;39.03;23.25;;;3.00;99.90;;;;;;5087724;28;20056;-80
2022/01/11 11:53:28;;;;;;;40.78;22.92;;;3.00;99.90;;;;;;5099605;28;20077;-79
2022/01/11 11:56:19;;;;;;;37.40;22.65;;;3.00;99.90;;;;;;5099662;28;20047;-78
2022/01/11 11:58:49;;;;;;;41.00;24.25;;;2.90;99.90;;;;;;5083452;28;20097;-80
2022/01/11 12:01:42;;;;;;;41.25;24.88;;;2.90;99.90;;;;;;5101506;28;20048;-80
2022/01/11 12:04:11;;;;;;;43.25;26.85;;;2.70;99.90;;;;;;5086284;28;20116;-81
2022/01/11 12:06:40;;;;;;;43.40;25.88;;;2.60;99.90;;;;;;5114390;28;20070;-80
2022/01/11 12:09:10;;;;;;;39.03;23.17;;;2.50;99.90;;;;;;5105076;28;20032;-79
2022/01/11 12:11:40;;;;;;;39.88;23.25;;;2.60;99.90;;;;;;5118118;28;20040;-78
2022/01/11 12:14:08;;;;;;;42.78;23.45;;;2.60;99.90;;;;;;5100330;28;20074;-79
2022/01/11 12:16:42;;;;;;;39.13;23.58;;;2.60;99.90;;;;;;5100590;28;20032;-80
2022/01/11 12:19:42;;;;;;;39.47;23.48;;;2.60;99.90;;;;;;5100558;28;20024;-79
2022/01/11 12:22:24;;;;;;;36.85;20.60;;;2.70;99.90;;;;;;5117302;28;20112;-79
2022/01/11 12:24:55;;;;;;;33.47;20.45;;;2.60;99.90;;;;;;5113357;28;20028;-79
2022/01/11 12:27:24;;;;;;;42.80;21.30;;;2.60;99.90;;;;;;5096294;28;20052;-79
2022/01/11 12:30:10;;;;;;;37.80;21.85;;;2.70;99.90;;;;;;5097898;28;20040;-79
2022/01/11 12:33:12;;;;;;;54.60;28.80;;;2.70;99.90;;;;;;5114762;28;20054;-79
2022/01/11 12:35:58;;;;;;;53.53;29.88;;;2.60;99.90;;;;;;5114179;28;20089;-79
2022/01/11 12:38:26;;;;;;;;;;;2.60;99.90;;;;;;5110416;28;20040;-80
2022/01/11 12:40:54;;;;;;;51.03;29.83;;;2.60;99.90;;;;;;5102034;28;19920;-81
2022/01/11 12:43:40;;;;;;;50.90;29.15;;;2.50;99.90;;;;;;5101835;28;20056;-80
2022/01/11 12:46:09;;;;;;;;;;;2.50;99.90;;;;;;5087914;28;20115;-81
2022/01/11 12:49:01;;;;;;;53.65;29.80;;;2.50;99.90;;;;;;5088128;28;19920;-81
2022/01/11 12:51:57;;;;;;;38.00;23.90;;;2.50;99.90;;;;;;5106024;28;20040;-81
2022/01/11 12:54:34;;;;;;;66.93;38.40;;;2.50;99.90;;;;;;5106093;28;20105;-80
2022/01/11 12:57:04;;;;;;;44.67;24.67;;;2.40;99.90;;;;;;5087667;28;20507;-79
2022/01/11 12:59:34;;;;;;;63.17;32.38;;;2.50;99.90;;;;;;5087172;28;20142;-81